KELZ/ELZ METAR and TAF weather

Enter ICAO airport designator
Station Type Date Time Source
KELZ METAR 2022/06/27 07:56 UTC NOAA

KELZ 270756Z AUTO 29013KT 10SM FEW014 BKN035 OVC070 19/17 A2998 RMK AO2 RAB34E54 SLP137 P0004 T01940167


Station Type Date Time Source
KELZ Decoded METAR 2022/06/27 07:56 UTC NOAA

WELLSVILLE MUNICIPAL AIRPORT, NY, United States (KELZ) 42-06N 077-60W 646M
Jun 27, 2022 - 03:56 AM EDT / 2022.06.27 0756 UTC
Wind: from the WNW (290 degrees) at 15 MPH (13 KT):0
Visibility: 10 mile(s):0
Sky conditions: overcast
Precipitation last hour: 0.04 inches
Temperature: 66.9 F (19.4 C)
Dew Point: 62.1 F (16.7 C)
Relative Humidity: 84%
Pressure (altimeter): 29.98 in. Hg (1015 hPa)
ob: KELZ 270756Z AUTO 29013KT 10SM FEW014 BKN035 OVC070 19/17 A2998 RMK AO2 RAB34E54 SLP137 P0004 T01940167
cycle: 8

Station Type Date Time Source
KELZ TAF UTC NOAA

Error!

Example: see airport list